Data for 01/18/2013

Time Sea-Level Adjusted Pressure Absolute Pressure Temperature Relative Humidity Dew Point   
(mb) (inHg) (mb) (inHg) (C) (F) (%) (C) (F)
00:05 1023 30.21 853 25.19 -1.4 29.4 59 -8.4 16.9
00:10 1023 30.21 853 25.19 -1.7 29 60 -8.4 16.9
00:15 1024 30.24 853 25.19 -2.1 28.2 64 -8.1 17.4
00:20 1024 30.24 853 25.19 -2.8 27 65 -8.5 16.8
00:25 1024 30.24 853 25.19 -2.9 26.8 66 -8.4 16.8
00:30 1024 30.24 853 25.19 -3 26.6 64 -8.9 15.9
00:35 1024 30.24 853 25.19 -2.6 27.3 65 -8.4 16.9
00:40 1024 30.24 853 25.19 -3 26.6 67 -8.2 17.3
00:45 1024 30.24 853 25.19 -3.4 26 67 -8.6 16.6
00:50 1023 30.21 853 25.19 -3 26.6 65 -8.8 16.2
00:55 1024 30.24 853 25.19 -2.7 27.1 63 -8.7 16.3
01:00 1024 30.24 853 25.19 -2.8 27 65 -8.6 16.6
01:05 1023 30.21 853 25.19 -2.6 27.3 63 -8.7 16.3
01:10 1023 30.21 852 25.16 -2.2 28 61 -8.7 16.3
01:15 1023 30.21 852 25.16 -2.1 28.3 61 -8.6 16.5
01:20 1023 30.21 852 25.16 -2 28.4 59 -8.9 15.9
01:25 1023 30.21 852 25.16 -1.6 29 59 -8.6 16.6
01:30 1023 30.21 852 25.16 -1.5 29.2 58 -8.9 16
01:35 1023 30.21 852 25.16 -1.6 29.1 57 -9.1 15.6
01:40 1023 30.21 852 25.16 -1.7 28.9 57 -9.1 15.6
01:45 1023 30.21 852 25.16 -1.8 28.8 58 -9 15.9
01:50 1023 30.21 852 25.16 -1.7 29 54 -9.8 14.4
01:55 1023 30.21 852 25.16 -0.8 30.5 51 -9.8 14.4
02:00 1023 30.21 852 25.16 -0.9 30.4 55 -8.8 16.1
02:05 1023 30.21 852 25.16 -1.3 29.7 52 -9.9 14.2
02:10 1023 30.21 852 25.16 -1 30.2 54 -9.2 15.4
02:15 1023 30.21 852 25.16 -1.1 30 54 -9.2 15.4
02:20 1023 30.21 852 25.16 -1.2 29.9 55 -9.1 15.7
02:25 1023 30.21 852 25.16 -1.1 30 54 -9.3 15.3
02:30 1022 30.18 852 25.16 -0.9 30.4 54 -9 15.8
02:35 1022 30.18 852 25.16 -1.2 29.9 55 -9.2 15.5
02:40 1022 30.18 852 25.16 -1.2 29.8 55 -9.2 15.5
02:45 1022 30.18 851 25.13 -1 30.1 53 -9.4 15.1
02:50 1022 30.18 851 25.13 -0.7 30.8 50 -9.8 14.4
02:55 1022 30.18 851 25.13 -0.2 31.7 49 -9.6 14.7
03:00 1022 30.18 851 25.13 0.1 32.2 46 -10.2 13.6
03:05 1022 30.18 851 25.13 0.7 33.2 44 -10.1 13.7
03:10 1022 30.18 851 25.13 0.9 33.5 44 -9.9 14.1
03:15 1022 30.18 851 25.13 0.8 33.4 46 -9.6 14.7
03:20 1022 30.18 851 25.13 0.6 33.1 46 -9.7 14.6
03:25 1022 30.18 851 25.13 0.5 32.8 45 -10 14
03:30 1022 30.18 851 25.13 0.8 33.4 43 -10.4 13.3
03:35 1022 30.18 851 25.13 0.8 33.4 45 -9.8 14.3
03:40 1022 30.18 851 25.13 0.3 32.6 46 -10 14
03:45 1022 30.18 851 25.13 0.4 32.7 45 -10.2 13.6
03:50 1022 30.18 851 25.13 0.6 33.1 44 -10.2 13.7
03:55 1022 30.18 851 25.13 0.6 33.2 45 -10 14
04:00 1022 30.18 851 25.13 0.4 32.7 46 -9.8 14.3
04:05 1022 30.18 851 25.13 0.3 32.5 46 -10 14
04:10 1022 30.18 851 25.13 0.3 32.6 46 -10 14
04:15 1022 30.18 851 25.13 0.3 32.6 45 -10.2 13.7
04:20 1022 30.18 851 25.13 0.4 32.7 45 -10.2 13.6
04:25 1022 30.18 851 25.13 0.4 32.8 45 -10.2 13.7
04:30 1022 30.18 851 25.13 0.3 32.5 46 -10.1 13.9
04:35 1022 30.18 851 25.13 0.1 32.2 45 -10.3 13.4
04:40 1022 30.18 851 25.13 -0 32 48 -9.7 14.5
04:45 1021 30.15 851 25.13 -0.7 30.7 50 -9.9 14.1
04:50 1021 30.15 851 25.13 -0.7 30.8 49 -10.2 13.7
04:55 1021 30.15 850 25.1 -0.9 30.4 48 -10.6 13
05:00 1021 30.15 850 25.1 -0.1 31.8 43 -11.1 12
05:05 1021 30.15 850 25.1 0.7 33.2 42 -11 12.3
05:10 1021 30.15 850 25.1 1.2 34.2 39 -11.3 11.6
05:15 1021 30.15 850 25.1 2 35.6 36 -11.4 11.5
05:20 1021 30.15 850 25.1 2.2 35.9 37 -11 12.1
05:25 1021 30.15 850 25.1 2 35.5 37 -11.3 11.7
05:30 1021 30.15 850 25.1 1.8 35.2 38 -10.9 12.3
05:35 1021 30.15 850 25.1 1.2 34.2 40 -10.9 12.4
05:40 1021 30.15 850 25.1 0.8 33.5 41 -11 12.3
05:45 1021 30.15 850 25.1 0.5 32.9 42 -10.9 12.3
05:50 1021 30.15 850 25.1 0.2 32.3 43 -11.1 12.1
05:55 1021 30.15 850 25.1 0.1 32.3 42 -11.2 11.8
06:00 1021 30.15 850 25.1 0.3 32.6 41 -11.3 11.7
06:05 1021 30.15 850 25.1 0.6 33.1 41 -11.2 11.9
06:10 1021 30.15 850 25.1 0.6 33 41 -11.2 11.8
06:15 1021 30.15 850 25.1 0.6 33 41 -11.3 11.7
06:20 1021 30.15 850 25.1 0.7 33.2 41 -11.1 12
06:25 1021 30.15 850 25.1 0.7 33.2 40 -11.4 11.5
06:30 1021 30.15 850 25.1 0.9 33.5 40 -11.3 11.6
06:35 1021 30.15 850 25.1 0.8 33.5 41 -11.1 12
06:40 1021 30.15 850 25.1 0.7 33.3 41 -11.2 11.8
06:45 1021 30.15 850 25.1 0.7 33.3 40 -11.4 11.4
06:50 1021 30.15 850 25.1 0.8 33.4 40 -11.5 11.4
06:55 1021 30.15 850 25.1 0.8 33.5 40 -11.3 11.7
07:00 1021 30.15 850 25.1 0.8 33.5 40 -11.2 11.9
07:05 1021 30.15 850 25.1 0.8 33.4 39 -11.8 10.8
07:10 1021 30.15 850 25.1 1.1 34 40 -10.9 12.3
07:15 1021 30.15 850 25.1 0.9 33.6 41 -10.9 12.4
07:20 1021 30.15 850 25.1 0.8 33.4 40 -11.3 11.6
07:25 1021 30.15 850 25.1 0.9 33.6 41 -11.1 12.1
07:30 1021 30.15 850 25.1 1 33.7 41 -11 12.2
07:35 1021 30.15 850 25.1 0.9 33.6 42 -10.6 12.8
07:40 1021 30.15 850 25.1 0.9 33.7 40 -11.1 12
07:45 1021 30.15 850 25.1 1.2 34.1 40 -11 12.1
07:50 1021 30.15 850 25.1 1.2 34.2 39 -11.3 11.7
07:55 1021 30.15 850 25.1 1.4 34.6 38 -11.4 11.6
08:00 1021 30.15 850 25.1 1.5 34.8 39 -11.1 12
08:05 1021 30.15 850 25.1 1.6 34.9 38 -11.4 11.5
08:10 1021 30.15 850 25.1 1.6 34.8 37 -11.7 11
08:15 1021 30.15 850 25.1 1.8 35.2 37 -11.5 11.3
08:20 1021 30.15 850 25.1 1.7 35.1 39 -10.9 12.3
08:25 1021 30.15 850 25.1 1.5 34.7 39 -10.9 12.5
08:30 1021 30.15 850 25.1 1.3 34.4 39 -11.2 11.8
08:35 1021 30.15 850 25.1 1.3 34.3 39 -11.2 11.9
08:40 1021 30.15 850 25.1 1.3 34.4 39 -11.3 11.7
08:45 1021 30.15 850 25.1 1.5 34.7 39 -11.1 11.9
08:50 1021 30.15 850 25.1 1.6 34.9 38 -11.1 12
08:55 1021 30.15 850 25.1 1.7 35 40 -10.4 13.3
09:00 1021 30.15 850 25.1 1.2 34.2 42 -10.2 13.6
09:05 1021 30.15 850 25.1 1 33.7 43 -10.2 13.6
09:10 1021 30.15 850 25.1 0.8 33.4 44 -10.1 13.9
09:15 1021 30.15 850 25.1 1.1 34 38 -11.7 11
09:20 1021 30.15 850 25.1 1.7 35.1 39 -10.9 12.4
09:25 1021 30.15 850 25.1 1.7 35 39 -10.9 12.3
09:30 1021 30.15 850 25.1 1.6 34.9 39 -10.9 12.4
09:35 1021 30.15 850 25.1 1.7 35 39 -11 12.2
09:40 1021 30.15 850 25.1 2 35.6 36 -11.6 11.2
09:45 1021 30.15 850 25.1 2.4 36.2 36 -11.4 11.5
09:50 1021 30.15 850 25.1 2.7 36.9 35 -11.2 11.8
09:55 1021 30.15 850 25.1 3 37.4 35 -11.1 11.9
10:00 1021 30.15 850 25.1 3.2 37.8 33 -11.6 11.1
10:05 1021 30.15 850 25.1 3.6 38.5 34 -10.9 12.4
10:10 1021 30.15 850 25.1 3.4 38.2 34 -11.1 12.1
10:15 1021 30.15 850 25.1 3.1 37.6 35 -10.9 12.3
10:20 1021 30.15 850 25.1 3 37.4 34 -11.4 11.6
10:25 1021 30.15 850 25.1 3 37.4 35 -10.9 12.4
10:30 1021 30.15 850 25.1 3 37.3 34 -11.4 11.4
10:35 1021 30.15 850 25.1 3 37.4 33 -11.7 11
10:40 1021 30.15 850 25.1 3.2 37.8 33 -11.7 10.9
10:45 1021 30.15 850 25.1 3.5 38.2 32 -11.7 10.9
10:50 1021 30.15 850 25.1 3.5 38.3 33 -11.3 11.6
10:55 1021 30.15 850 25.1 3.4 38.1 33 -11.3 11.7
11:00 1021 30.15 850 25.1 3.3 38 34 -11.2 11.8
11:05 1021 30.15 850 25.1 3 37.4 35 -10.9 12.4
11:10 1021 30.15 850 25.1 2.7 36.9 37 -10.6 12.9
11:15 1021 30.15 850 25.1 2.5 36.5 38 -10.6 13
11:20 1021 30.15 850 25.1 2.4 36.4 37 -10.9 12.4
11:25 1021 30.15 850 25.1 2.6 36.6 36 -11 12.2
11:30 1021 30.15 850 25.1 2.6 36.7 35 -11.2 11.8
11:35 1021 30.15 850 25.1 2.8 37 36 -10.9 12.5
11:40 1021 30.15 850 25.1 3 37.3 35 -11 12.3
11:45 1021 30.15 850 25.1 3 37.4 34 -11.5 11.3
11:50 1021 30.15 850 25.1 3.3 38 33 -11.3 11.7
11:55 1020 30.12 850 25.1 3.7 38.7 32 -11.5 11.3
12:00 1020 30.12 850 25.1 4.1 39.3 32 -11.3 11.7
12:05 1020 30.12 850 25.1 4 39.1 33 -10.8 12.6
12:10 1020 30.12 850 25.1 3.7 38.6 34 -10.7 12.7
12:15 1020 30.12 849 25.07 3.5 38.3 33 -11.2 11.8
12:20 1020 30.12 849 25.07 3.5 38.2 34 -11 12.1
12:25 1020 30.12 849 25.07 3.6 38.4 34 -11 12.2
12:30 1020 30.12 849 25.07 3.7 38.7 33 -11 12.1
12:35 1020 30.12 849 25.07 3.7 38.7 33 -11.3 11.7
12:40 1020 30.12 849 25.07 3.7 38.7 33 -11.3 11.7
12:45 1020 30.12 849 25.07 3.9 39.1 31 -11.6 11.2
12:50 1020 30.12 849 25.07 4.4 40 30 -11.8 10.8
12:55 1020 30.12 849 25.07 5.1 41.2 30 -11.3 11.7
13:00 1020 30.12 849 25.07 5.4 41.7 29 -11.2 11.9
13:05 1020 30.12 849 25.07 5.6 42.1 29 -11.2 11.8
13:10 1020 30.12 849 25.07 6.2 43.1 28 -11.2 11.8
13:15 1020 30.12 849 25.07 6.3 43.4 28 -11.1 12.1
13:20 1020 30.12 849 25.07 6.3 43.3 27 -11.6 11.1
13:25 1020 30.12 849 25.07 6.7 44 27 -11.2 11.9
13:30 1020 30.12 849 25.07 7.3 45.1 24 -12.1 10.2
13:35 1020 30.12 849 25.07 8.2 46.8 22 -12.3 9.9
13:40 1020 30.12 849 25.07 8.8 47.9 22 -11.7 11
13:45 1020 30.12 849 25.07 9 48.2 22 -11.6 11.1
13:50 1020 30.12 849 25.07 9.4 48.9 22 -11.2 11.9
13:55 1020 30.12 849 25.07 9.5 49 22 -11.3 11.7
14:00 1020 30.12 849 25.07 9.5 49.2 23 -10.8 12.6
14:05 1019 30.09 849 25.07 9.5 49.1 22 -11.4 11.4
14:10 1019 30.09 849 25.07 9.6 49.3 22 -10.8 12.5
14:15 1019 30.09 848 25.04 9.6 49.2 23 -10.7 12.7
14:20 1019 30.09 848 25.04 9.5 49.2 23 -10.6 13
14:25 1019 30.09 848 25.04 9.3 48.7 24 -10.2 13.7
14:30 1019 30.09 848 25.04 9.2 48.6 24 -10.4 13.2
14:35 1019 30.09 848 25.04 8.7 47.7 25 -10.1 13.8
14:40 1019 30.09 848 25.04 8.5 47.4 26 -9.9 14.2
14:45 1019 30.09 848 25.04 8.5 47.3 26 -10.1 13.9
14:50 1019 30.09 848 25.04 8.7 47.6 25 -10.5 13.1
14:55 1019 30.09 848 25.04 8.8 47.8 25 -10.3 13.4
15:00 1019 30.09 848 25.04 8.4 47.1 25 -10.4 13.3
15:05 1019 30.09 848 25.04 8.3 46.9 23 -11.5 11.3
15:10 1019 30.09 848 25.04 8.5 47.4 24 -10.7 12.7
15:15 1019 30.09 848 25.04 8.3 47 24 -11 12.2
15:20 1019 30.09 848 25.04 8.3 47 24 -11.3 11.7
15:25 1018 30.06 848 25.04 8.5 47.4 24 -10.9 12.3
15:30 1018 30.06 848 25.04 8.7 47.7 23 -11.1 11.9
15:35 1018 30.06 848 25.04 8.9 47.9 24 -10.7 12.7
15:40 1018 30.06 848 25.04 8.8 47.8 25 -10.4 13.3
15:45 1018 30.06 847 25.01 9.1 48.4 23 -10.9 12.5
15:50 1018 30.06 847 25.01 9.1 48.3 24 -10.2 13.6
15:55 1018 30.06 847 25.01 9.1 48.3 24 -10.6 13
16:00 1018 30.06 847 25.01 8.9 48 25 -10.3 13.4
16:05 1018 30.06 847 25.01 9 48.1 25 -10.2 13.7
16:10 1018 30.06 847 25.01 9.2 48.5 23 -10.7 12.7
16:15 1018 30.06 847 25.01 9.2 48.6 24 -10.5 13.1
16:20 1018 30.06 847 25.01 9.2 48.5 25 -10.1 13.9
16:25 1018 30.06 847 25.01 9.2 48.6 25 -10 14
16:30 1018 30.06 848 25.04 9.1 48.3 24 -10.5 13.1
16:35 1018 30.06 848 25.04 9 48.2 24 -10.5 13.1
16:40 1019 30.09 848 25.04 9.2 48.5 25 -10 14
16:45 1019 30.09 848 25.04 9.1 48.3 25 -9.8 14.3
16:50 1018 30.06 848 25.04 8.8 47.8 27 -9.4 15
16:55 1018 30.06 848 25.04 8.5 47.2 25 -10.2 13.6
17:00 1018 30.06 848 25.04 8.3 47 26 -10.2 13.6
17:05 1018 30.06 848 25.04 8.4 47.1 26 -10.3 13.5
17:10 1018 30.06 848 25.04 8.4 47.1 26 -10.2 13.7
17:15 1018 30.06 847 25.01 8.2 46.8 26 -10.1 13.9
17:20 1018 30.06 847 25.01 8.2 46.7 26 -10.1 13.8
17:25 1018 30.06 847 25.01 8.2 46.8 25 -10.6 12.9
17:30 1018 30.06 847 25.01 8.4 47 24 -11 12.2
17:35 1018 30.06 847 25.01 8.4 47.1 25 -10.6 12.9
17:40 1018 30.06 847 25.01 8.2 46.7 25 -10.8 12.5
17:45 1018 30.06 847 25.01 8.1 46.7 25 -11 12.2
17:50 1018 30.06 848 25.04 8.2 46.7 26 -10.2 13.7
17:55 1018 30.06 848 25.04 8 46.3 25 -11.1 12
18:00 1018 30.06 848 25.04 8.2 46.7 24 -11 12.2
18:05 1018 30.06 848 25.04 8 46.4 27 -9.9 14.2
18:10 1018 30.06 848 25.04 7.5 45.5 28 -9.8 14.4
18:15 1018 30.06 848 25.04 7.3 45.1 29 -9.8 14.3
18:20 1019 30.09 848 25.04 7 44.6 30 -9.6 14.8
18:25 1019 30.09 848 25.04 6.8 44.3 30 -9.6 14.8
18:30 1019 30.09 848 25.04 7 44.6 27 -10.7 12.7
18:35 1018 30.06 848 25.04 7.3 45.1 27 -10.6 12.9
18:40 1018 30.06 848 25.04 7.1 44.8 28 -10 14
18:45 1019 30.09 848 25.04 6.9 44.5 27 -10.8 12.5
18:50 1019 30.09 848 25.04 7.2 44.9 25 -11.4 11.5
18:55 1019 30.09 848 25.04 7.4 45.2 27 -10.6 12.9
19:00 1019 30.09 848 25.04 7.2 45 25 -11.8 10.8
19:05 1019 30.09 848 25.04 7.6 45.6 25 -11.3 11.7
19:10 1019 30.09 848 25.04 7.3 45.1 26 -11 12.2
19:15 1019 30.09 848 25.04 7.1 44.8 26 -11 12.2
19:20 1019 30.09 848 25.04 7 44.7 26 -11 12.2
19:25 1019 30.09 848 25.04 7.1 44.9 27 -10.6 13
19:30 1019 30.09 848 25.04 7.1 44.7 28 -10.1 13.8
19:35 1019 30.09 848 25.04 7 44.6 27 -10.7 12.7
19:40 1019 30.09 848 25.04 7.1 44.8 27 -10.5 13.1
19:45 1019 30.09 848 25.04 7 44.7 27 -10.5 13.1
19:50 1019 30.09 848 25.04 7.1 44.7 26 -11.4 11.5
19:55 1019 30.09 848 25.04 7.3 45.2 26 -11 12.1
20:00 1019 30.09 848 25.04 7.3 45.1 25 -11.6 11.2
20:05 1019 30.09 848 25.04 7.3 45.2 27 -10.6 13
20:10 1019 30.09 848 25.04 7.2 45 27 -10.4 13.3
20:15 1019 30.09 849 25.07 7 44.6 28 -10.3 13.5
20:20 1019 30.09 849 25.07 6.7 44 30 -9.9 14.2
20:25 1019 30.09 849 25.07 6.5 43.7 29 -10.3 13.4
20:30 1020 30.12 849 25.07 6.5 43.7 29 -10.5 13.1
20:35 1020 30.12 849 25.07 6.6 43.8 28 -10.9 12.4
20:40 1020 30.12 849 25.07 6.8 44.2 28 -10.7 12.7
20:45 1020 30.12 849 25.07 6.8 44.2 28 -10.6 12.8
20:50 1020 30.12 849 25.07 6.7 44.1 30 -9.9 14.2
20:55 1020 30.12 849 25.07 6.3 43.4 32 -9 15.8
21:00 1020 30.12 849 25.07 5.9 42.6 33 -9.1 15.6
21:05 1020 30.12 849 25.07 5.6 42.1 32 -9.6 14.6
21:10 1020 30.12 849 25.07 5.6 42 32 -10 14.1
21:15 1020 30.12 849 25.07 5.7 42.2 31 -10.3 13.4
21:20 1020 30.12 849 25.07 5.6 42 31 -10.3 13.4
21:25 1020 30.12 849 25.07 5.3 41.6 32 -9.9 14.2
21:30 1020 30.12 850 25.1 5.1 41.1 34 -9.6 14.8
21:35 1020 30.12 850 25.1 4.7 40.4 35 -9.6 14.7
21:40 1021 30.15 850 25.1 4.4 40 34 -10.2 13.7
21:45 1021 30.15 850 25.1 4.5 40.1 33 -10.5 13.2
21:50 1021 30.15 850 25.1 4.6 40.3 33 -10.4 13.3
21:55 1021 30.15 850 25.1 4.8 40.6 31 -10.9 12.3
22:00 1021 30.15 850 25.1 5 41 30 -11.2 11.9
22:05 1021 30.15 850 25.1 5.2 41.3 30 -11.1 12
22:10 1021 30.15 850 25.1 4.9 40.8 34 -9.8 14.4
22:15 1021 30.15 850 25.1 4.2 39.6 34 -10.2 13.7
22:20 1021 30.15 850 25.1 4 39.3 34 -10.6 13
22:25 1021 30.15 850 25.1 4.1 39.3 34 -10.4 13.2
22:30 1021 30.15 850 25.1 3.9 39 35 -10.1 13.8
22:35 1021 30.15 850 25.1 3.5 38.4 36 -10.3 13.5
22:40 1021 30.15 850 25.1 3.4 38.1 35 -10.7 12.7
22:45 1021 30.15 850 25.1 3.3 38 36 -10.5 13
22:50 1021 30.15 850 25.1 3.2 37.8 36 -10.6 13
22:55 1021 30.15 850 25.1 3.2 37.7 37 -10.2 13.6
23:00 1021 30.15 850 25.1 2.8 37.1 38 -10.1 13.8
23:05 1021 30.15 850 25.1 2.6 36.6 38 -10.4 13.3
23:10 1021 30.15 850 25.1 2.7 36.9 33 -12.1 10.2
23:15 1021 30.15 850 25.1 3.1 37.6 32 -12.1 10.2
23:20 1021 30.15 850 25.1 3.4 38.2 30 -12.5 9.6
23:25 1021 30.15 850 25.1 3.7 38.7 29 -12.6 9.3
23:30 1021 30.15 850 25.1 4 39.1 29 -12.7 9.1
23:35 1021 30.15 850 25.1 3.9 39.1 29 -12.5 9.5
23:40 1021 30.15 850 25.1 3.7 38.7 30 -12.2 10.1
23:45 1021 30.15 850 25.1 3.4 38.2 30 -12.6 9.3
23:50 1021 30.15 850 25.1 3.4 38.1 30 -12.4 9.6
23:55 1021 30.15 851 25.13 3.4 38.2 31 -12.4 9.7
24:00 1021 30.15 851 25.13 3.7 38.7 28 -13.1 8.4